Hartford, Connecticut
Traffic Map
Current Weather Conditions
Hartford, Connecticut
Overcast
Overcast
33°
Feels Like: 25°
Wind Chill: 25° Ceiling: 5500
Heat Index: 33° Visibility: 10mi
Dew Point: 21° Wind: 9mph
Humidity: 61% Direction: 330° (NNW)
Pressure: 29.43in Gusts: 0mph
Raw Report DataKHFD 130253Z 33008KT 10SM OVC055 01/M06 A2943 RMK AO2 PK WND 30027/0157 SLP966 T00061061 53020
Traffic Incident Summary
Active as of:
Severity:
Category:
InformationThere was an issue retrieving the traffic information for this location. Please try a different location or try again shortly.
Advertisements